Time;durP1;ratioP1;P1;durP2;ratioP2;P2;SDS_P1;SDS_P2;PMS_P1;PMS_P2;Temp;Humidity;BMP_temperature;BMP_pressure;BME280_temperature;BME280_humidity;BME280_pressure;Samples;Min_cycle;Max_cycle;Signal;HPM_P1;HPM_P2
2021/04/10 00:02:15;;;;;;;11.25;7.15;;;;;;;;;;5007838;28;20025;-49
2021/04/10 00:04:41;;;;;;;11.18;6.82;;;;;;;;;;5009692;28;20501;-49
2021/04/10 00:07:07;;;;;;;11.30;6.55;;;;;;;;;;5014650;28;20029;-50
2021/04/10 00:09:33;;;;;;;10.98;6.22;;;;;;;;;;5014221;28;20501;-50
2021/04/10 00:11:59;;;;;;;11.68;6.15;;;;;;;;;;5015342;28;20032;-50
2021/04/10 00:14:25;;;;;;;12.57;6.25;;;;;;;;;;5015907;28;20393;-51
2021/04/10 00:16:51;;;;;;;9.73;6.00;;;;;;;;;;4997716;28;20026;-50
2021/04/10 00:19:17;;;;;;;10.27;6.30;;;;;;;;;;5015522;28;20136;-49
2021/04/10 00:21:43;;;;;;;10.23;6.85;;;;;;;;;;5015424;28;20049;-50
2021/04/10 00:24:09;;;;;;;10.10;5.82;;;;;;;;;;5014398;28;20442;-52
2021/04/10 00:26:35;;;;;;;12.23;5.93;;;;;;;;;;5014775;28;20483;-50
2021/04/10 00:29:01;;;;;;;11.18;6.20;;;;;;;;;;5015078;28;20022;-51
2021/04/10 00:31:27;;;;;;;9.93;6.18;;;;;;;;;;4994342;28;20033;-51
2021/04/10 00:33:53;;;;;;;8.35;6.07;;;;;;;;;;5011006;28;20100;-51
2021/04/10 00:36:19;;;;;;;9.65;6.65;;;;;;;;;;5011450;28;20034;-52
2021/04/10 00:38:45;;;;;;;10.80;6.00;;;;;;;;;;5014557;28;20040;-49
2021/04/10 00:41:12;;;;;;;12.15;6.40;;;;;;;;;;5014486;28;20374;-50
2021/04/10 00:43:39;;;;;;;11.68;6.85;;;;;;;;;;5013725;28;20037;-51
2021/04/10 00:46:06;;;;;;;14.82;6.38;;;;;;;;;;5012576;28;20021;-49
2021/04/10 00:48:32;;;;;;;12.32;7.22;;;;;;;;;;5010848;28;20026;-51
2021/04/10 00:50:58;;;;;;;14.65;7.13;;;;;;;;;;5010877;28;21693;-50
2021/04/10 00:53:25;;;;;;;9.02;6.20;;;;;;;;;;5011143;28;20038;-50
2021/04/10 00:55:53;;;;;;;9.85;6.38;;;;;;;;;;5014405;28;20072;-52
2021/04/10 00:58:19;;;;;;;12.32;7.00;;;;;;;;;;5014110;28;20038;-54
2021/04/10 01:00:45;;;;;;;13.00;7.43;;;;;;;;;;5014922;28;20513;-53
2021/04/10 01:03:11;;;;;;;18.65;7.10;;;;;;;;;;5014466;28;20022;-53
2021/04/10 01:05:37;;;;;;;8.95;6.32;;;;;;;;;;5007577;28;20030;-50
2021/04/10 01:08:03;;;;;;;12.77;6.60;;;;;;;;;;5013379;28;20030;-56
2021/04/10 01:10:30;;;;;;;11.18;6.13;;;;;;;;;;5012879;28;20108;-50
2021/04/10 01:12:59;;;;;;;11.98;7.28;;;;;;;;;;5014286;28;20485;-50
2021/04/10 01:15:34;;;;;;;14.70;6.75;;;;;;;;;;5010476;28;20489;-50
2021/04/10 01:18:04;;;;;;;9.27;6.82;;;;;;;;;;5012316;28;20101;-49
2021/04/10 01:20:42;;;;;;;11.02;7.13;;;;;;;;;;5010099;28;20018;-50
2021/04/10 01:23:16;;;;;;;14.93;7.05;;;;;;;;;;5013719;28;20486;-49
2021/04/10 01:26:01;;;;;;;13.65;6.72;;;;;;;;;;5002283;28;20054;-50
2021/04/10 01:28:46;;;;;;;11.32;5.75;;;;;;;;;;5014284;28;20479;-51
2021/04/10 01:31:13;;;;;;;8.88;6.30;;;;;;;;;;5014489;28;20403;-50
2021/04/10 01:33:46;;;;;;;9.60;6.72;;;;;;;;;;5011283;28;20125;-49
2021/04/10 01:36:12;;;;;;;;;;;;;;;;;;5010972;28;20030;-52
2021/04/10 01:38:41;;;;;;;10.30;7.10;;;;;;;;;;5009089;28;19913;-49
2021/04/10 01:41:08;;;;;;;12.65;6.40;;;;;;;;;;5013189;28;20457;-49
2021/04/10 01:43:35;;;;;;;9.80;6.25;;;;;;;;;;5013999;28;20045;-49
2021/04/10 01:46:02;;;;;;;11.63;6.07;;;;;;;;;;5010425;28;20057;-50
2021/04/10 01:48:29;;;;;;;12.23;6.10;;;;;;;;;;5012168;28;20026;-50
2021/04/10 01:50:56;;;;;;;10.38;6.75;;;;;;;;;;5013318;28;20204;-50
2021/04/10 01:53:22;;;;;;;9.93;6.30;;;;;;;;;;5013572;28;20038;-50
2021/04/10 01:55:49;;;;;;;13.13;7.25;;;;;;;;;;5013562;28;20026;-50
2021/04/10 01:58:16;;;;;;;11.60;6.32;;;;;;;;;;5013293;28;20038;-53
2021/04/10 02:00:43;;;;;;;7.28;5.28;;;;;;;;;;5011718;28;20048;-54
2021/04/10 02:03:10;;;;;;;9.52;6.13;;;;;;;;;;5009801;28;20152;-53
2021/04/10 02:05:36;;;;;;;9.07;6.03;;;;;;;;;;5013042;28;20036;-50
2021/04/10 02:08:03;;;;;;;10.55;6.22;;;;;;;;;;5012971;28;20034;-50
2021/04/10 02:10:29;;;;;;;8.45;5.72;;;;;;;;;;5013665;28;20053;-50
2021/04/10 02:12:55;;;;;;;11.23;6.18;;;;;;;;;;5013227;28;20113;-52
2021/04/10 02:15:22;;;;;;;9.93;6.18;;;;;;;;;;5013196;28;20393;-52
2021/04/10 02:17:48;;;;;;;8.52;5.47;;;;;;;;;;4995033;28;20030;-49
2021/04/10 02:20:14;;;;;;;10.13;6.57;;;;;;;;;;5012162;28;20026;-50
2021/04/10 02:22:43;;;;;;;9.13;6.07;;;;;;;;;;5012983;28;20022;-50
2021/04/10 02:25:09;;;;;;;11.15;6.13;;;;;;;;;;5003954;28;20060;-51
2021/04/10 02:27:35;;;;;;;9.07;5.85;;;;;;;;;;5009614;28;20038;-54
2021/04/10 02:30:01;;;;;;;12.70;6.32;;;;;;;;;;5012591;28;20081;-53
2021/04/10 02:32:29;;;;;;;12.68;6.82;;;;;;;;;;5013292;28;20029;-54
2021/04/10 02:35:07;;;;;;;10.60;6.82;;;;;;;;;;5012973;28;20030;-53
2021/04/10 02:37:33;;;;;;;11.00;6.60;;;;;;;;;;5012386;28;20025;-51
2021/04/10 02:39:59;;;;;;;12.05;7.00;;;;;;;;;;5013111;28;20096;-50
2021/04/10 02:42:27;;;;;;;15.10;6.68;;;;;;;;;;5013100;28;20029;-50
2021/04/10 02:44:55;;;;;;;10.35;6.53;;;;;;;;;;5012805;28;20038;-52
2021/04/10 02:47:23;;;;;;;11.30;6.97;;;;;;;;;;5012489;28;20613;-50
2021/04/10 02:49:52;;;;;;;9.82;6.55;;;;;;;;;;5013093;28;20041;-49
2021/04/10 02:52:21;;;;;;;17.23;7.85;;;;;;;;;;5012234;28;20073;-50
2021/04/10 02:54:49;;;;;;;13.43;8.88;;;;;;;;;;5012317;28;20029;-50
2021/04/10 02:57:19;;;;;;;13.73;8.38;;;;;;;;;;5002679;28;20092;-50
2021/04/10 02:59:48;;;;;;;13.77;7.60;;;;;;;;;;5011965;28;20116;-50
2021/04/10 03:02:15;;;;;;;12.50;7.85;;;;;;;;;;5012778;28;20457;-51
2021/04/10 03:04:41;;;;;;;13.73;7.95;;;;;;;;;;5006658;28;20036;-51
2021/04/10 03:07:08;;;;;;;11.70;7.78;;;;;;;;;;5010469;28;20029;-51
2021/04/10 03:09:37;;;;;;;12.68;7.20;;;;;;;;;;5012697;28;20130;-51
2021/04/10 03:12:03;;;;;;;13.30;8.13;;;;;;;;;;5012548;28;20026;-53
2021/04/10 03:14:30;;;;;;;13.73;7.55;;;;;;;;;;5012480;28;20331;-51
2021/04/10 03:16:56;;;;;;;13.77;7.13;;;;;;;;;;5012158;28;20112;-51
2021/04/10 03:19:22;;;;;;;13.30;6.82;;;;;;;;;;5012282;28;20117;-54
2021/04/10 03:21:48;;;;;;;13.40;7.35;;;;;;;;;;5009415;28;20160;-56
2021/04/10 03:24:14;;;;;;;12.57;7.18;;;;;;;;;;5010786;28;20101;-49
2021/04/10 03:26:40;;;;;;;11.77;7.00;;;;;;;;;;5001908;28;20036;-50
2021/04/10 03:29:07;;;;;;;12.02;6.68;;;;;;;;;;5012141;28;20117;-50
2021/04/10 03:31:33;;;;;;;12.30;6.03;;;;;;;;;;5011446;28;20049;-50
2021/04/10 03:34:00;;;;;;;9.57;6.13;;;;;;;;;;5010053;28;20037;-50
2021/04/10 03:36:26;;;;;;;11.00;6.28;;;;;;;;;;5006883;28;20054;-50
2021/04/10 03:38:52;;;;;;;7.85;5.32;;;;;;;;;;5007953;28;20570;-50
2021/04/10 03:41:18;;;;;;;10.63;6.78;;;;;;;;;;4994467;28;20034;-51
2021/04/10 03:43:44;;;;;;;11.13;6.10;;;;;;;;;;5012147;28;20140;-54
2021/04/10 03:46:10;;;;;;;13.40;6.40;;;;;;;;;;5009062;28;20025;-49
2021/04/10 03:48:36;;;;;;;10.93;6.90;;;;;;;;;;5015623;28;20030;-53
2021/04/10 03:51:02;;;;;;;12.40;7.78;;;;;;;;;;5015684;28;20101;-52
2021/04/10 03:53:28;;;;;;;10.98;7.10;;;;;;;;;;5015452;28;20366;-50
2021/04/10 03:55:54;;;;;;;10.10;6.97;;;;;;;;;;5015578;28;20079;-50
2021/04/10 03:58:20;;;;;;;8.90;7.18;;;;;;;;;;5014891;28;20432;-49
2021/04/10 04:00:47;;;;;;;10.23;6.65;;;;;;;;;;5015703;28;20087;-51
2021/04/10 04:03:13;;;;;;;11.30;6.60;;;;;;;;;;5015327;28;20061;-50
2021/04/10 04:05:39;;;;;;;9.75;6.50;;;;;;;;;;5014048;28;20034;-51
2021/04/10 04:08:05;;;;;;;16.00;7.70;;;;;;;;;;5015294;28;20474;-52
2021/04/10 04:10:31;;;;;;;12.40;7.20;;;;;;;;;;5015842;28;20685;-53
2021/04/10 04:12:57;;;;;;;12.82;6.63;;;;;;;;;;5015425;28;20034;-54
2021/04/10 04:15:23;;;;;;;13.07;7.10;;;;;;;;;;5003583;28;20050;-55
2021/04/10 04:17:49;;;;;;;9.13;6.90;;;;;;;;;;5014012;28;20036;-54
2021/04/10 04:20:15;;;;;;;19.77;8.13;;;;;;;;;;5015545;28;20029;-52
2021/04/10 04:22:41;;;;;;;11.10;7.50;;;;;;;;;;5014596;28;20033;-50
2021/04/10 04:25:08;;;;;;;13.43;7.95;;;;;;;;;;5006036;28;20074;-52
2021/04/10 04:27:37;;;;;;;12.80;7.93;;;;;;;;;;5014507;28;20072;-50
2021/04/10 04:30:04;;;;;;;11.27;8.05;;;;;;;;;;5015032;28;20490;-50
2021/04/10 04:32:30;;;;;;;14.77;8.23;;;;;;;;;;5012107;28;20066;-52
2021/04/10 04:34:56;;;;;;;10.27;7.55;;;;;;;;;;5015193;28;20104;-53
2021/04/10 04:37:22;;;;;;;13.43;7.57;;;;;;;;;;5001414;28;20093;-50
2021/04/10 04:39:48;;;;;;;14.65;7.93;;;;;;;;;;5015330;28;20033;-49
2021/04/10 04:42:14;;;;;;;10.77;8.23;;;;;;;;;;5014674;28;20026;-50
2021/04/10 04:44:40;;;;;;;11.18;8.40;;;;;;;;;;5014586;28;20084;-49
2021/04/10 04:47:06;;;;;;;12.85;8.40;;;;;;;;;;5014085;28;20037;-50
2021/04/10 04:49:32;;;;;;;13.23;8.27;;;;;;;;;;5014996;28;20390;-51
2021/04/10 04:51:58;;;;;;;11.23;7.85;;;;;;;;;;5014504;28;20030;-52
2021/04/10 04:54:24;;;;;;;11.07;8.73;;;;;;;;;;5014965;28;20033;-49
2021/04/10 04:56:50;;;;;;;15.48;8.85;;;;;;;;;;5014479;28;20033;-50
2021/04/10 04:59:16;;;;;;;11.23;8.63;;;;;;;;;;5014516;28;20037;-56
2021/04/10 05:01:42;;;;;;;13.30;8.73;;;;;;;;;;5014914;28;20038;-55
2021/04/10 05:04:08;;;;;;;12.30;8.30;;;;;;;;;;5011703;28;20450;-51
2021/04/10 05:06:34;;;;;;;13.68;9.13;;;;;;;;;;5014404;28;20026;-51
2021/04/10 05:09:00;;;;;;;14.57;9.25;;;;;;;;;;5014329;28;20030;-55
2021/04/10 05:11:26;;;;;;;14.95;8.88;;;;;;;;;;5014535;28;20029;-50
2021/04/10 05:13:52;;;;;;;12.63;8.65;;;;;;;;;;5014164;28;20037;-52
2021/04/10 05:16:18;;;;;;;12.70;8.23;;;;;;;;;;5014136;28;20026;-53
2021/04/10 05:18:44;;;;;;;14.18;8.88;;;;;;;;;;5014422;28;20030;-54
2021/04/10 05:21:10;;;;;;;12.65;9.05;;;;;;;;;;5011791;28;20481;-52
2021/04/10 05:23:37;;;;;;;14.10;8.75;;;;;;;;;;5010922;28;20049;-53
2021/04/10 05:26:03;;;;;;;18.10;8.93;;;;;;;;;;5009253;28;20506;-51
2021/04/10 05:28:29;;;;;;;21.13;9.90;;;;;;;;;;5010063;28;21525;-52
2021/04/10 05:31:01;;;;;;;13.20;9.40;;;;;;;;;;5009831;28;20033;-53
2021/04/10 05:33:27;;;;;;;16.40;9.88;;;;;;;;;;5010382;28;20042;-53
2021/04/10 05:35:53;;;;;;;16.45;8.80;;;;;;;;;;5010048;28;20115;-52
2021/04/10 05:38:19;;;;;;;13.40;9.23;;;;;;;;;;5013671;28;20022;-50
2021/04/10 05:40:45;;;;;;;14.55;8.90;;;;;;;;;;5013488;28;20474;-50
2021/04/10 05:43:11;;;;;;;14.40;9.57;;;;;;;;;;5011877;28;20025;-50
2021/04/10 05:45:37;;;;;;;12.93;9.18;;;;;;;;;;5010409;28;20030;-54
2021/04/10 05:48:03;;;;;;;15.25;9.65;;;;;;;;;;5008154;28;20033;-51
2021/04/10 05:50:29;;;;;;;14.57;9.10;;;;;;;;;;5013711;28;20034;-54
2021/04/10 05:52:55;;;;;;;16.58;8.88;;;;;;;;;;5013385;28;20041;-55
2021/04/10 05:55:21;;;;;;;17.10;8.57;;;;;;;;;;5013399;28;20077;-50
2021/04/10 05:57:47;;;;;;;14.95;8.90;;;;;;;;;;5012936;28;20066;-52
2021/04/10 06:00:14;;;;;;;13.27;9.05;;;;;;;;;;5008770;28;20030;-54
2021/04/10 06:02:40;;;;;;;12.82;8.95;;;;;;;;;;5008973;28;20025;-53
2021/04/10 06:05:06;;;;;;;20.20;9.60;;;;;;;;;;5008580;28;20099;-50
2021/04/10 06:07:32;;;;;;;12.95;9.00;;;;;;;;;;5011016;28;20544;-55
2021/04/10 06:09:58;;;;;;;14.18;9.25;;;;;;;;;;5012937;28;20018;-49
2021/04/10 06:12:24;;;;;;;15.55;9.25;;;;;;;;;;5010567;28;20520;-51
2021/04/10 06:14:50;;;;;;;16.27;9.02;;;;;;;;;;5009849;28;20041;-49
2021/04/10 06:17:17;;;;;;;14.75;9.30;;;;;;;;;;5012915;28;20041;-51
2021/04/10 06:19:43;;;;;;;15.80;9.73;;;;;;;;;;5013106;28;20040;-49
2021/04/10 06:22:09;;;;;;;13.82;9.30;;;;;;;;;;5008833;28;20056;-50
2021/04/10 06:24:35;;;;;;;16.48;9.63;;;;;;;;;;5011627;28;20100;-49
2021/04/10 06:27:01;;;;;;;16.52;9.48;;;;;;;;;;5012226;28;20034;-55
2021/04/10 06:29:27;;;;;;;16.30;9.40;;;;;;;;;;5012913;28;20104;-51
2021/04/10 06:31:53;;;;;;;16.85;10.07;;;;;;;;;;5013001;28;20110;-49
2021/04/10 06:34:19;;;;;;;14.70;9.43;;;;;;;;;;5012699;28;20394;-52
2021/04/10 06:36:45;;;;;;;15.32;9.23;;;;;;;;;;5009232;28;20037;-54
2021/04/10 06:39:11;;;;;;;19.23;10.02;;;;;;;;;;5010760;28;20038;-53
2021/04/10 06:41:39;;;;;;;14.23;9.32;;;;;;;;;;5012954;28;20473;-53
2021/04/10 06:44:05;;;;;;;13.38;8.38;;;;;;;;;;5012925;28;20022;-51
2021/04/10 06:46:32;;;;;;;15.20;7.78;;;;;;;;;;5012331;28;20386;-53
2021/04/10 06:48:59;;;;;;;16.05;8.10;;;;;;;;;;5012798;28;20022;-51
2021/04/10 06:51:25;;;;;;;13.43;7.22;;;;;;;;;;5012344;28;20073;-54
2021/04/10 06:53:53;;;;;;;15.30;7.18;;;;;;;;;;5011593;28;20394;-53
2021/04/10 06:56:21;;;;;;;16.17;8.20;;;;;;;;;;5011965;28;20053;-52
2021/04/10 06:58:55;;;;;;;15.77;7.78;;;;;;;;;;5011462;28;20030;-50
2021/04/10 07:01:21;;;;;;;15.00;7.70;;;;;;;;;;5011919;28;20034;-50
2021/04/10 07:03:50;;;;;;;17.80;7.93;;;;;;;;;;5012191;28;20073;-49
2021/04/10 07:06:16;;;;;;;17.00;7.88;;;;;;;;;;5007495;28;20034;-49
2021/04/10 07:08:42;;;;;;;12.88;7.97;;;;;;;;;;5012042;28;20837;-53
2021/04/10 07:11:08;;;;;;;13.60;7.20;;;;;;;;;;5012256;28;20486;-54
2021/04/10 07:13:34;;;;;;;11.25;7.22;;;;;;;;;;5011476;28;20169;-54
2021/04/10 07:16:01;;;;;;;12.80;7.47;;;;;;;;;;5011609;28;20029;-51
2021/04/10 07:18:28;;;;;;;18.50;7.20;;;;;;;;;;5011643;28;20088;-50
2021/04/10 07:21:11;;;;;;;17.20;7.57;;;;;;;;;;5012477;28;20489;-53
2021/04/10 07:23:44;;;;;;;13.23;7.47;;;;;;;;;;5010848;28;20092;-53
2021/04/10 07:26:10;;;;;;;12.05;7.45;;;;;;;;;;5003236;28;20088;-53
2021/04/10 07:28:36;;;;;;;14.60;7.53;;;;;;;;;;5011374;28;20080;-52
2021/04/10 07:31:06;;;;;;;17.45;8.82;;;;;;;;;;5011953;28;20029;-53
2021/04/10 07:33:34;;;;;;;16.10;7.70;;;;;;;;;;5011615;28;20368;-51
2021/04/10 07:36:01;;;;;;;13.82;7.53;;;;;;;;;;5010295;28;20049;-49
2021/04/10 07:38:28;;;;;;;14.63;8.05;;;;;;;;;;5011787;28;20034;-50
2021/04/10 07:40:54;;;;;;;16.25;7.43;;;;;;;;;;5012029;28;20084;-51
2021/04/10 07:43:24;;;;;;;13.27;7.25;;;;;;;;;;5010129;28;20033;-50
2021/04/10 07:45:50;;;;;;;14.63;7.40;;;;;;;;;;5009025;28;20447;-52
2021/04/10 07:48:18;;;;;;;11.45;7.07;;;;;;;;;;5010000;28;20033;-52
2021/04/10 07:50:44;;;;;;;12.65;7.20;;;;;;;;;;5011790;28;20038;-52
2021/04/10 07:53:24;;;;;;;15.00;7.57;;;;;;;;;;5010621;28;20091;-53
2021/04/10 07:55:51;;;;;;;13.93;6.57;;;;;;;;;;5011698;28;20029;-52
2021/04/10 07:58:20;;;;;;;12.00;6.82;;;;;;;;;;5009690;28;20466;-50
2021/04/10 08:00:46;;;;;;;11.18;6.38;;;;;;;;;;5011058;28;20022;-52
2021/04/10 08:03:42;;;;;;;13.30;7.00;;;;;;;;;;5011307;28;20061;-54
2021/04/10 08:06:08;;;;;;;13.18;6.30;;;;;;;;;;4979882;28;20053;-51
2021/04/10 08:08:34;;;;;;;15.75;6.18;;;;;;;;;;5011432;28;20458;-49
2021/04/10 08:11:02;;;;;;;14.13;6.22;;;;;;;;;;5011319;28;20447;-50
2021/04/10 08:13:28;;;;;;;9.05;5.72;;;;;;;;;;5009519;28;20026;-50
2021/04/10 08:16:17;;;;;;;9.85;5.57;;;;;;;;;;5010348;28;20438;-50
2021/04/10 08:18:46;;;;;;;10.45;6.35;;;;;;;;;;5008290;28;20065;-54
2021/04/10 08:21:13;;;;;;;20.23;6.70;;;;;;;;;;5011450;28;20030;-50
2021/04/10 08:23:39;;;;;;;9.90;6.03;;;;;;;;;;5010955;28;20025;-51
2021/04/10 08:26:05;;;;;;;12.18;6.05;;;;;;;;;;5012553;28;20069;-53
2021/04/10 08:28:31;;;;;;;13.68;6.05;;;;;;;;;;5014415;28;20114;-53
2021/04/10 08:31:00;;;;;;;11.00;5.47;;;;;;;;;;5015326;28;20508;-52
2021/04/10 08:33:27;;;;;;;15.07;5.68;;;;;;;;;;5015080;28;20156;-50
2021/04/10 08:35:54;;;;;;;12.15;6.55;;;;;;;;;;5014295;28;20064;-49
2021/04/10 08:38:22;;;;;;;13.57;5.13;;;;;;;;;;5014032;28;20031;-50
2021/04/10 08:40:51;;;;;;;14.63;5.30;;;;;;;;;;5014403;28;20478;-50
2021/04/10 08:43:18;;;;;;;11.88;5.93;;;;;;;;;;5014692;28;20113;-51
2021/04/10 08:45:49;;;;;;;10.55;4.82;;;;;;;;;;5014827;28;20022;-52
2021/04/10 08:48:16;;;;;;;8.13;4.90;;;;;;;;;;5012291;28;20022;-56
2021/04/10 08:50:42;;;;;;;14.75;5.30;;;;;;;;;;4996083;28;20034;-50
2021/04/10 08:53:15;;;;;;;16.02;5.68;;;;;;;;;;5006165;28;20838;-50
2021/04/10 08:55:41;;;;;;;12.30;5.32;;;;;;;;;;5011943;28;20530;-49
2021/04/10 08:58:25;;;;;;;10.65;4.82;;;;;;;;;;4995458;28;20038;-51
2021/04/10 09:00:55;;;;;;;7.20;4.35;;;;;;;;;;5008724;28;20056;-53
2021/04/10 09:03:21;;;;;;;8.32;4.13;;;;;;;;;;5011693;28;20034;-52
2021/04/10 09:05:49;;;;;;;11.00;4.45;;;;;;;;;;5011078;28;20021;-52
2021/04/10 09:08:25;;;;;;;11.60;3.88;;;;;;;;;;5010882;28;20041;-53
2021/04/10 09:10:52;;;;;;;9.88;4.30;;;;;;;;;;5014196;28;20034;-51
2021/04/10 09:13:18;;;;;;;10.82;4.20;;;;;;;;;;4995817;28;20467;-55
2021/04/10 09:15:44;;;;;;;8.60;4.57;;;;;;;;;;5013386;28;20038;-53
2021/04/10 09:18:13;;;;;;;14.60;4.45;;;;;;;;;;5006207;28;20121;-55
2021/04/10 09:20:45;;;;;;;7.43;3.67;;;;;;;;;;5013792;28;20033;-54
2021/04/10 09:23:23;;;;;;;11.80;4.95;;;;;;;;;;5009818;28;20033;-55
2021/04/10 09:26:07;;;;;;;11.55;3.70;;;;;;;;;;5004007;28;20076;-51
2021/04/10 09:28:34;;;;;;;8.77;4.15;;;;;;;;;;5010930;28;20072;-53
2021/04/10 09:31:00;;;;;;;7.85;3.47;;;;;;;;;;5008934;28;20026;-50
2021/04/10 09:33:29;;;;;;;7.63;3.70;;;;;;;;;;5011441;28;20056;-51
2021/04/10 09:35:56;;;;;;;8.55;2.65;;;;;;;;;;5012460;28;20544;-52
2021/04/10 09:38:57;;;;;;;7.85;2.88;;;;;;;;;;5010859;28;20030;-51
2021/04/10 09:41:43;;;;;;;6.70;2.67;;;;;;;;;;4953156;28;20155;-51
2021/04/10 09:44:09;;;;;;;5.97;3.15;;;;;;;;;;5008407;28;20125;-49
2021/04/10 09:46:35;;;;;;;6.43;3.33;;;;;;;;;;5012725;28;20362;-49
2021/04/10 09:49:01;;;;;;;8.38;3.03;;;;;;;;;;5009563;28;20036;-54
2021/04/10 09:51:27;;;;;;;7.53;3.10;;;;;;;;;;5013567;28;20370;-53
2021/04/10 09:53:53;;;;;;;11.75;3.40;;;;;;;;;;5013383;28;20030;-50
2021/04/10 09:56:21;;;;;;;7.07;3.40;;;;;;;;;;5013526;28;20033;-49
2021/04/10 09:58:48;;;;;;;7.47;2.80;;;;;;;;;;5013647;28;20039;-52
2021/04/10 10:01:16;;;;;;;6.78;2.95;;;;;;;;;;5012867;28;20036;-54
2021/04/10 10:03:43;;;;;;;8.38;3.03;;;;;;;;;;5013867;28;20430;-50
2021/04/10 10:06:19;;;;;;;9.48;3.40;;;;;;;;;;5011606;28;20034;-50
2021/04/10 10:08:45;;;;;;;7.10;2.75;;;;;;;;;;5004620;28;20042;-51
2021/04/10 10:11:12;;;;;;;4.70;2.85;;;;;;;;;;5013171;28;20030;-49
2021/04/10 10:13:39;;;;;;;6.00;2.63;;;;;;;;;;5013323;28;20026;-51
2021/04/10 10:16:05;;;;;;;5.68;2.60;;;;;;;;;;5012785;28;20038;-50
2021/04/10 10:18:35;;;;;;;6.15;3.03;;;;;;;;;;5013282;28;20071;-49
2021/04/10 10:21:03;;;;;;;9.48;3.53;;;;;;;;;;5013198;28;20022;-50
2021/04/10 10:23:30;;;;;;;11.48;3.63;;;;;;;;;;5005616;28;20451;-50
2021/04/10 10:26:03;;;;;;;6.03;3.28;;;;;;;;;;5008276;28;20061;-50
2021/04/10 10:28:29;;;;;;;6.90;3.30;;;;;;;;;;5006796;28;20041;-50
2021/04/10 10:30:59;;;;;;;7.30;3.30;;;;;;;;;;5010655;28;20441;-54
2021/04/10 10:33:25;;;;;;;6.55;3.10;;;;;;;;;;5012686;28;20797;-50
2021/04/10 10:35:52;;;;;;;6.40;3.63;;;;;;;;;;5012756;28;20488;-49
2021/04/10 10:38:18;;;;;;;7.72;3.08;;;;;;;;;;5011741;28;20044;-53
2021/04/10 10:40:47;;;;;;;4.80;2.63;;;;;;;;;;5012708;28;20050;-54
2021/04/10 10:43:13;;;;;;;8.68;3.60;;;;;;;;;;5013265;28;20076;-51
2021/04/10 10:45:42;;;;;;;7.57;3.67;;;;;;;;;;5012222;28;20058;-50
2021/04/10 10:48:35;;;;;;;9.30;3.58;;;;;;;;;;5011648;28;20018;-49
2021/04/10 10:51:01;;;;;;;6.05;3.38;;;;;;;;;;5008693;28;20029;-50
2021/04/10 10:53:28;;;;;;;6.57;3.80;;;;;;;;;;5010784;28;20026;-52
2021/04/10 10:56:05;;;;;;;8.90;4.00;;;;;;;;;;5001940;28;20038;-49
2021/04/10 10:58:32;;;;;;;8.27;3.30;;;;;;;;;;5003505;28;20080;-51
2021/04/10 11:00:59;;;;;;;8.07;3.75;;;;;;;;;;5005771;28;20046;-49
2021/04/10 11:03:25;;;;;;;7.00;3.70;;;;;;;;;;5002869;28;22141;-52
2021/04/10 11:05:52;;;;;;;7.90;3.55;;;;;;;;;;5009560;28;20034;-50
2021/04/10 11:08:18;;;;;;;8.93;3.72;;;;;;;;;;5007443;28;20065;-51
2021/04/10 11:10:45;;;;;;;8.60;3.35;;;;;;;;;;4999927;28;20534;-50
2021/04/10 11:13:13;;;;;;;8.02;4.00;;;;;;;;;;5004317;28;20557;-50
2021/04/10 11:15:39;;;;;;;6.80;3.60;;;;;;;;;;5002273;28;20121;-50
2021/04/10 11:18:06;;;;;;;8.50;3.97;;;;;;;;;;5001923;28;20079;-53
2021/04/10 11:20:32;;;;;;;7.60;3.63;;;;;;;;;;5001111;28;20114;-50
2021/04/10 11:23:03;;;;;;;7.60;3.42;;;;;;;;;;5000612;28;20021;-50
2021/04/10 11:25:29;;;;;;;7.15;3.58;;;;;;;;;;5003774;28;20061;-52
2021/04/10 11:27:55;;;;;;;9.77;3.42;;;;;;;;;;5001275;28;20474;-50
2021/04/10 11:30:21;;;;;;;6.85;3.70;;;;;;;;;;5004451;28;20096;-50
2021/04/10 11:32:47;;;;;;;7.10;3.85;;;;;;;;;;5003504;28;20034;-50
2021/04/10 11:35:20;;;;;;;7.85;3.65;;;;;;;;;;5003784;28;20092;-51
2021/04/10 11:37:54;;;;;;;9.48;3.40;;;;;;;;;;5000277;28;20494;-49
2021/04/10 11:40:29;;;;;;;7.57;4.05;;;;;;;;;;5004657;28;20076;-51
2021/04/10 11:42:56;;;;;;;12.82;3.78;;;;;;;;;;5000958;28;20038;-51
2021/04/10 11:45:22;;;;;;;5.47;3.13;;;;;;;;;;5005777;28;20022;-51
2021/04/10 11:47:48;;;;;;;12.05;4.00;;;;;;;;;;5006429;28;20030;-51
2021/04/10 11:50:15;;;;;;;9.38;3.60;;;;;;;;;;5002716;28;20038;-52
2021/04/10 11:52:42;;;;;;;7.53;3.72;;;;;;;;;;5001577;28;20493;-50
2021/04/10 11:55:08;;;;;;;7.95;3.70;;;;;;;;;;5004331;28;20030;-51
2021/04/10 11:57:35;;;;;;;10.95;4.05;;;;;;;;;;5001546;28;20026;-52
2021/04/10 12:00:28;;;;;;;7.88;4.05;;;;;;;;;;5000743;28;20466;-51
2021/04/10 12:03:03;;;;;;;8.73;3.95;;;;;;;;;;5002239;28;20034;-52
2021/04/10 12:05:38;;;;;;;8.05;3.97;;;;;;;;;;5005797;28;20023;-53
2021/04/10 12:08:11;;;;;;;9.23;3.42;;;;;;;;;;5007230;28;20042;-54
2021/04/10 12:10:41;;;;;;;6.53;3.58;;;;;;;;;;5010235;28;20072;-52
2021/04/10 12:13:07;;;;;;;7.43;3.45;;;;;;;;;;5010800;28;20047;-55
2021/04/10 12:15:35;;;;;;;9.55;3.53;;;;;;;;;;5010596;28;20021;-54
2021/04/10 12:18:03;;;;;;;7.45;3.30;;;;;;;;;;5012432;28;20926;-51
2021/04/10 12:20:29;;;;;;;8.23;3.22;;;;;;;;;;5014611;28;20091;-50
2021/04/10 12:22:56;;;;;;;5.38;3.13;;;;;;;;;;5014072;28;20033;-52
2021/04/10 12:25:22;;;;;;;8.88;3.22;;;;;;;;;;5009091;28;20108;-52
2021/04/10 12:27:48;;;;;;;7.38;4.95;;;;;;;;;;5007512;28;20052;-55
2021/04/10 12:30:14;;;;;;;6.55;3.97;;;;;;;;;;5004549;28;20042;-50
2021/04/10 12:32:40;;;;;;;6.00;3.35;;;;;;;;;;5005996;28;20026;-50
2021/04/10 12:35:07;;;;;;;5.32;2.83;;;;;;;;;;5008772;28;20633;-52
2021/04/10 12:37:33;;;;;;;8.30;2.90;;;;;;;;;;5006425;28;20037;-51
2021/04/10 12:39:59;;;;;;;9.65;2.75;;;;;;;;;;5004846;28;20411;-54
2021/04/10 12:42:25;;;;;;;6.00;2.78;;;;;;;;;;5004623;28;20466;-54
2021/04/10 12:44:51;;;;;;;6.15;2.72;;;;;;;;;;5001112;28;20037;-53
2021/04/10 12:47:17;;;;;;;13.30;3.30;;;;;;;;;;5003254;28;20033;-51
2021/04/10 12:49:43;;;;;;;6.40;2.70;;;;;;;;;;5008545;28;20109;-53
2021/04/10 12:52:09;;;;;;;10.75;3.42;;;;;;;;;;5008005;28;20477;-55
2021/04/10 12:54:36;;;;;;;7.50;2.92;;;;;;;;;;5005972;28;20061;-54
2021/04/10 12:57:02;;;;;;;6.00;2.88;;;;;;;;;;5007751;28;20096;-54
2021/04/10 12:59:28;;;;;;;7.82;2.45;;;;;;;;;;5007035;28;20068;-54
2021/04/10 13:01:56;;;;;;;6.93;3.25;;;;;;;;;;5006978;28;20061;-53
2021/04/10 13:04:23;;;;;;;8.20;2.90;;;;;;;;;;5010784;28;20046;-55
2021/04/10 13:06:50;;;;;;;10.00;2.90;;;;;;;;;;4999092;28;20386;-52
2021/04/10 13:09:16;;;;;;;11.35;3.20;;;;;;;;;;5008292;28;20034;-50
2021/04/10 13:11:42;;;;;;;6.78;2.60;;;;;;;;;;5005992;28;20041;-49
2021/04/10 13:14:07;;;;;;;12.07;3.28;;;;;;;;;;5009315;28;20060;-53
2021/04/10 13:16:33;;;;;;;10.05;3.30;;;;;;;;;;5005028;28;20053;-55
2021/04/10 13:19:00;;;;;;;12.15;3.58;;;;;;;;;;5001995;28;20048;-55
2021/04/10 13:21:26;;;;;;;10.18;2.88;;;;;;;;;;5007182;28;20042;-53
2021/04/10 13:23:52;;;;;;;12.30;3.15;;;;;;;;;;5007522;28;20168;-52
2021/04/10 13:26:18;;;;;;;12.75;3.47;;;;;;;;;;5011623;28;20044;-54
2021/04/10 13:28:44;;;;;;;11.38;3.60;;;;;;;;;;5008825;28;20442;-53
2021/04/10 13:31:10;;;;;;;8.45;3.25;;;;;;;;;;5002990;28;20076;-51
2021/04/10 13:33:36;;;;;;;10.20;2.40;;;;;;;;;;5003583;28;20034;-51
2021/04/10 13:36:02;;;;;;;7.70;3.00;;;;;;;;;;5006674;28;20037;-50
2021/04/10 13:38:28;;;;;;;6.00;2.47;;;;;;;;;;5009454;28;20108;-51
2021/04/10 13:40:54;;;;;;;11.57;3.00;;;;;;;;;;5005002;28;20367;-51
2021/04/10 13:43:20;;;;;;;9.80;2.53;;;;;;;;;;5012340;28;20018;-50
2021/04/10 13:45:47;;;;;;;7.38;2.40;;;;;;;;;;5008900;28;20030;-52
2021/04/10 13:48:13;;;;;;;7.75;2.55;;;;;;;;;;5001620;28;20038;-54
2021/04/10 13:50:39;;;;;;;4.95;2.25;;;;;;;;;;5000865;28;20769;-55
2021/04/10 13:53:05;;;;;;;10.40;3.17;;;;;;;;;;5004774;28;20149;-52
2021/04/10 13:55:31;;;;;;;13.60;3.22;;;;;;;;;;5001376;28;20625;-55
2021/04/10 13:57:57;;;;;;;6.18;2.72;;;;;;;;;;4994424;28;20026;-52
2021/04/10 14:00:23;;;;;;;8.02;2.95;;;;;;;;;;4997382;28;20054;-52
2021/04/10 14:02:49;;;;;;;12.80;3.90;;;;;;;;;;5008501;28;20037;-56
2021/04/10 14:05:17;;;;;;;8.15;2.95;;;;;;;;;;5012265;28;20093;-54
2021/04/10 14:07:43;;;;;;;10.77;2.47;;;;;;;;;;5008863;28;20049;-55
2021/04/10 14:10:12;;;;;;;12.70;2.78;;;;;;;;;;5011604;28;20070;-50
2021/04/10 14:12:38;;;;;;;11.25;3.15;;;;;;;;;;5009885;28;20037;-52
2021/04/10 14:15:05;;;;;;;7.93;3.00;;;;;;;;;;5013482;28;20038;-54
2021/04/10 14:17:32;;;;;;;9.65;2.80;;;;;;;;;;5006023;28;20036;-51
2021/04/10 14:19:57;;;;;;;8.13;2.35;;;;;;;;;;5008392;28;20026;-53
2021/04/10 14:22:24;;;;;;;6.85;2.63;;;;;;;;;;5007614;28;20437;-55
